Bell Post Hill, Victoria

5:48 AM AEDT on March 04, 2015 (GMT +1100)
APRSWXNET | Change Station
CLOSE
Current Station
Personal Weather Station
Location: Geelong, VC
Elevation: 272 ft
Nearby Weather Stations

Elev 272 ft 38.12 °S, 144.32 °E | Updated 9 days ago

Clear
Clear
55 °F
Feels Like 55 °F
N
9
Wind Variable Wind from WNW
Gusts mph

Today
High -- | Low -- °F
--% Chance of Precip.
Yesterday
High -- | Low -- °F
Precip. -- in
7:09 AM 7:59 PM
Waxing Gibbous, 97% visible
Pressure 29.95 in
Visibility 6.2 miles
Clouds
Dew Point 51 °F
Humidity 86%
Rainfall 0.00 in
Snow Depth Not available.
UV Not available.
Pollen Not available.
Air Quality Not available.
Flu Activity Not available.
METAR YMAV 031830Z AUTO 31006KT 9999 // NCD 13/10 Q1014

More Conditions Fewer Conditions

Pressure 29.95 in
Visibility 6.2 miles
Clouds
Dew Point 51 °F
Humidity 86%
Rainfall 0.00 in
Snow Depth Not available.
UV Not available.
Pollen Not available.
Air Quality Not available.
Flu Activity Not available.
METAR YMAV 031830Z AUTO 31006KT 9999 // NCD 13/10 Q1014

More Conditions Fewer Conditions

10-Day Weather Forecast

Almanac

Astronomy

Mar. 04, 2015 Rise Set
Actual Time
Civil Twilight
Nautical Twilight
Astronomical Twilight
Moon
Length of Visible Light
Length of Day
Tomorrow will be .
, % of the Moon is Illuminated

Today's Extremes

Country Highs Country Lows

Community

WunderPhotos

Upload Photos

1,802,198 photos uploaded!

WunderBlogs® & News

Nearby

Air Quality

  Air Quality AQ Index Pollutant
Not available.

Snow Depth

Station Depth Elevation

Earthquake Activity

City Distance Mag. Time & Date
Minimum magnitude displayed is 2.5.

Coastal Water Temperatures

Place Temperature

Nearby Weather Stations